sensor_id;sensor_type;location;lat;lon;timestamp;temperature;humidity
20658;DHT22;10488;50.846;4.078;2022-08-01T00:01:55;21.50;99.90
20658;DHT22;10488;50.846;4.078;2022-08-01T00:04:21;21.40;99.90
20658;DHT22;10488;50.846;4.078;2022-08-01T00:06:47;21.40;99.90
20658;DHT22;10488;50.846;4.078;2022-08-01T00:09:12;21.60;99.90
20658;DHT22;10488;50.846;4.078;2022-08-01T00:11:38;21.50;99.90
20658;DHT22;10488;50.846;4.078;2022-08-01T00:14:03;21.50;99.90
20658;DHT22;10488;50.846;4.078;2022-08-01T00:16:29;21.60;99.90
20658;DHT22;10488;50.846;4.078;2022-08-01T00:18:55;21.70;99.90
20658;DHT22;10488;50.846;4.078;2022-08-01T00:21:21;21.50;99.90
20658;DHT22;10488;50.846;4.078;2022-08-01T00:23:46;21.60;99.90
20658;DHT22;10488;50.846;4.078;2022-08-01T00:26:13;21.70;99.90
20658;DHT22;10488;50.846;4.078;2022-08-01T00:28:39;21.70;99.90
20658;DHT22;10488;50.846;4.078;2022-08-01T00:31:05;21.50;99.90
20658;DHT22;10488;50.846;4.078;2022-08-01T00:33:31;21.30;99.90
20658;DHT22;10488;50.846;4.078;2022-08-01T00:35:57;21.20;99.90
20658;DHT22;10488;50.846;4.078;2022-08-01T00:38:22;21.20;99.90
20658;DHT22;10488;50.846;4.078;2022-08-01T00:40:48;21.10;99.90
20658;DHT22;10488;50.846;4.078;2022-08-01T00:43:15;21.10;99.90
20658;DHT22;10488;50.846;4.078;2022-08-01T00:45:41;21.30;99.90
20658;DHT22;10488;50.846;4.078;2022-08-01T00:48:06;21.20;99.90
20658;DHT22;10488;50.846;4.078;2022-08-01T00:50:33;21.10;99.90
20658;DHT22;10488;50.846;4.078;2022-08-01T00:52:59;21.20;99.90
20658;DHT22;10488;50.846;4.078;2022-08-01T00:55:27;21.30;99.90
20658;DHT22;10488;50.846;4.078;2022-08-01T00:57:53;21.10;99.90
20658;DHT22;10488;50.846;4.078;2022-08-01T01:00:19;21.00;99.90
20658;DHT22;10488;50.846;4.078;2022-08-01T01:02:45;21.00;99.90
20658;DHT22;10488;50.846;4.078;2022-08-01T01:05:10;21.00;99.90
20658;DHT22;10488;50.846;4.078;2022-08-01T01:07:56;20.80;99.90
20658;DHT22;10488;50.846;4.078;2022-08-01T01:13:06;21.10;99.90
20658;DHT22;10488;50.846;4.078;2022-08-01T01:15:43;20.90;99.90
20658;DHT22;10488;50.846;4.078;2022-08-01T01:18:14;20.90;99.90
20658;DHT22;10488;50.846;4.078;2022-08-01T01:20:49;20.90;99.90
20658;DHT22;10488;50.846;4.078;2022-08-01T01:29:13;20.90;99.90
20658;DHT22;10488;50.846;4.078;2022-08-01T01:31:58;20.70;99.90
20658;DHT22;10488;50.846;4.078;2022-08-01T01:34:28;20.70;99.90
20658;DHT22;10488;50.846;4.078;2022-08-01T01:36:54;20.60;99.90
20658;DHT22;10488;50.846;4.078;2022-08-01T01:39:24;20.70;99.90
20658;DHT22;10488;50.846;4.078;2022-08-01T01:41:52;20.70;99.90
20658;DHT22;10488;50.846;4.078;2022-08-01T01:44:19;20.60;99.90
20658;DHT22;10488;50.846;4.078;2022-08-01T01:46:45;20.40;99.90
20658;DHT22;10488;50.846;4.078;2022-08-01T01:49:11;20.60;99.90
20658;DHT22;10488;50.846;4.078;2022-08-01T01:51:38;20.70;99.90
20658;DHT22;10488;50.846;4.078;2022-08-01T01:54:07;20.90;99.90
20658;DHT22;10488;50.846;4.078;2022-08-01T01:56:35;20.90;99.90
20658;DHT22;10488;50.846;4.078;2022-08-01T01:59:21;21.00;99.90
20658;DHT22;10488;50.846;4.078;2022-08-01T02:01:51;21.10;99.90
20658;DHT22;10488;50.846;4.078;2022-08-01T02:04:18;21.00;99.90
20658;DHT22;10488;50.846;4.078;2022-08-01T02:06:46;20.90;99.90
20658;DHT22;10488;50.846;4.078;2022-08-01T02:09:15;20.70;99.90
20658;DHT22;10488;50.846;4.078;2022-08-01T02:11:43;20.70;99.90
20658;DHT22;10488;50.846;4.078;2022-08-01T02:14:10;20.70;99.90
20658;DHT22;10488;50.846;4.078;2022-08-01T02:16:39;20.80;99.90
20658;DHT22;10488;50.846;4.078;2022-08-01T02:19:05;20.90;99.90
20658;DHT22;10488;50.846;4.078;2022-08-01T02:21:37;20.90;99.90
20658;DHT22;10488;50.846;4.078;2022-08-01T02:24:12;21.00;99.90
20658;DHT22;10488;50.846;4.078;2022-08-01T02:26:42;20.80;99.90
20658;DHT22;10488;50.846;4.078;2022-08-01T02:29:10;20.70;99.90
20658;DHT22;10488;50.846;4.078;2022-08-01T02:31:40;20.60;99.90
20658;DHT22;10488;50.846;4.078;2022-08-01T02:34:09;20.60;99.90
20658;DHT22;10488;50.846;4.078;2022-08-01T02:36:35;20.50;99.90
20658;DHT22;10488;50.846;4.078;2022-08-01T02:39:08;20.70;99.90
20658;DHT22;10488;50.846;4.078;2022-08-01T02:41:38;20.80;99.90
20658;DHT22;10488;50.846;4.078;2022-08-01T02:44:07;20.90;99.90
20658;DHT22;10488;50.846;4.078;2022-08-01T02:46:40;21.00;99.90
20658;DHT22;10488;50.846;4.078;2022-08-01T02:49:09;21.00;99.90
20658;DHT22;10488;50.846;4.078;2022-08-01T02:51:36;20.90;99.90
20658;DHT22;10488;50.846;4.078;2022-08-01T02:54:05;20.80;99.90
20658;DHT22;10488;50.846;4.078;2022-08-01T02:56:32;20.60;99.90
20658;DHT22;10488;50.846;4.078;2022-08-01T02:59:05;20.60;99.90
20658;DHT22;10488;50.846;4.078;2022-08-01T03:01:33;20.40;99.90
20658;DHT22;10488;50.846;4.078;2022-08-01T03:03:59;20.40;99.90
20658;DHT22;10488;50.846;4.078;2022-08-01T03:06:25;20.50;99.90
20658;DHT22;10488;50.846;4.078;2022-08-01T03:08:52;20.40;99.90
20658;DHT22;10488;50.846;4.078;2022-08-01T03:11:19;20.40;99.90
20658;DHT22;10488;50.846;4.078;2022-08-01T03:13:47;20.50;99.90
20658;DHT22;10488;50.846;4.078;2022-08-01T03:16:15;20.50;99.90
20658;DHT22;10488;50.846;4.078;2022-08-01T03:18:43;20.50;99.90
20658;DHT22;10488;50.846;4.078;2022-08-01T03:21:12;20.60;99.90
20658;DHT22;10488;50.846;4.078;2022-08-01T03:23:40;20.60;99.90
20658;DHT22;10488;50.846;4.078;2022-08-01T03:26:06;20.70;99.90
20658;DHT22;10488;50.846;4.078;2022-08-01T03:28:32;20.80;99.90
20658;DHT22;10488;50.846;4.078;2022-08-01T03:30:59;20.50;99.90
20658;DHT22;10488;50.846;4.078;2022-08-01T03:33:25;20.40;99.90
20658;DHT22;10488;50.846;4.078;2022-08-01T03:35:53;20.30;99.90
20658;DHT22;10488;50.846;4.078;2022-08-01T03:38:23;20.20;99.90
20658;DHT22;10488;50.846;4.078;2022-08-01T03:41:26;20.10;99.90
20658;DHT22;10488;50.846;4.078;2022-08-01T03:43:57;20.10;99.90
20658;DHT22;10488;50.846;4.078;2022-08-01T03:46:32;20.10;99.90
20658;DHT22;10488;50.846;4.078;2022-08-01T03:49:03;20.20;99.90
20658;DHT22;10488;50.846;4.078;2022-08-01T03:51:30;20.30;99.90
20658;DHT22;10488;50.846;4.078;2022-08-01T03:54:00;20.40;99.90
20658;DHT22;10488;50.846;4.078;2022-08-01T03:56:26;20.30;99.90
20658;DHT22;10488;50.846;4.078;2022-08-01T03:58:53;20.20;99.90
20658;DHT22;10488;50.846;4.078;2022-08-01T04:01:19;20.10;99.90
20658;DHT22;10488;50.846;4.078;2022-08-01T04:03:46;19.70;99.90
20658;DHT22;10488;50.846;4.078;2022-08-01T04:06:12;19.50;99.90
20658;DHT22;10488;50.846;4.078;2022-08-01T04:08:39;19.60;99.90
20658;DHT22;10488;50.846;4.078;2022-08-01T04:11:07;19.70;99.90
20658;DHT22;10488;50.846;4.078;2022-08-01T04:13:33;19.90;99.90
20658;DHT22;10488;50.846;4.078;2022-08-01T04:15:59;19.80;99.90
20658;DHT22;10488;50.846;4.078;2022-08-01T04:18:25;19.60;99.90
20658;DHT22;10488;50.846;4.078;2022-08-01T04:20:50;19.40;99.90
20658;DHT22;10488;50.846;4.078;2022-08-01T04:23:18;19.60;99.90
20658;DHT22;10488;50.846;4.078;2022-08-01T04:25:46;19.60;99.90
20658;DHT22;10488;50.846;4.078;2022-08-01T04:28:14;19.80;99.90
20658;DHT22;10488;50.846;4.078;2022-08-01T04:30:43;20.00;99.90
20658;DHT22;10488;50.846;4.078;2022-08-01T04:33:11;19.90;99.90
20658;DHT22;10488;50.846;4.078;2022-08-01T04:35:45;19.60;99.90
20658;DHT22;10488;50.846;4.078;2022-08-01T04:38:13;19.90;99.90
20658;DHT22;10488;50.846;4.078;2022-08-01T04:40:42;20.10;99.90
20658;DHT22;10488;50.846;4.078;2022-08-01T04:43:09;20.20;99.90
20658;DHT22;10488;50.846;4.078;2022-08-01T04:45:35;19.70;99.90
20658;DHT22;10488;50.846;4.078;2022-08-01T04:48:05;19.50;99.90
20658;DHT22;10488;50.846;4.078;2022-08-01T04:50:32;19.80;99.90
20658;DHT22;10488;50.846;4.078;2022-08-01T04:52:58;19.70;99.90
20658;DHT22;10488;50.846;4.078;2022-08-01T04:55:23;19.60;99.90
20658;DHT22;10488;50.846;4.078;2022-08-01T04:57:49;19.50;99.90
20658;DHT22;10488;50.846;4.078;2022-08-01T05:00:15;19.50;99.90
20658;DHT22;10488;50.846;4.078;2022-08-01T05:02:43;19.60;99.90
20658;DHT22;10488;50.846;4.078;2022-08-01T05:05:09;19.50;99.90
20658;DHT22;10488;50.846;4.078;2022-08-01T05:07:36;19.50;99.90
20658;DHT22;10488;50.846;4.078;2022-08-01T05:10:03;19.40;99.90
20658;DHT22;10488;50.846;4.078;2022-08-01T05:12:29;19.60;99.90
20658;DHT22;10488;50.846;4.078;2022-08-01T05:14:54;19.80;99.90
20658;DHT22;10488;50.846;4.078;2022-08-01T05:17:21;20.00;99.90
20658;DHT22;10488;50.846;4.078;2022-08-01T05:19:46;19.70;99.90
20658;DHT22;10488;50.846;4.078;2022-08-01T05:22:12;19.60;99.90
20658;DHT22;10488;50.846;4.078;2022-08-01T05:24:39;19.90;99.90
20658;DHT22;10488;50.846;4.078;2022-08-01T05:27:05;19.90;99.90
20658;DHT22;10488;50.846;4.078;2022-08-01T05:29:33;20.00;99.90
20658;DHT22;10488;50.846;4.078;2022-08-01T05:31:59;20.10;99.90
20658;DHT22;10488;50.846;4.078;2022-08-01T05:34:25;20.20;99.90
20658;DHT22;10488;50.846;4.078;2022-08-01T05:36:50;20.20;99.90
20658;DHT22;10488;50.846;4.078;2022-08-01T05:39:16;20.30;99.90
20658;DHT22;10488;50.846;4.078;2022-08-01T05:41:42;20.50;99.90
20658;DHT22;10488;50.846;4.078;2022-08-01T05:44:08;20.90;99.90
20658;DHT22;10488;50.846;4.078;2022-08-01T05:46:35;20.80;99.90
20658;DHT22;10488;50.846;4.078;2022-08-01T05:49:02;20.30;99.90
20658;DHT22;10488;50.846;4.078;2022-08-01T05:51:28;20.20;99.90
20658;DHT22;10488;50.846;4.078;2022-08-01T05:53:54;20.20;99.90
20658;DHT22;10488;50.846;4.078;2022-08-01T05:56:20;20.10;99.90
20658;DHT22;10488;50.846;4.078;2022-08-01T05:58:47;20.10;99.90
20658;DHT22;10488;50.846;4.078;2022-08-01T06:01:12;20.10;99.90
20658;DHT22;10488;50.846;4.078;2022-08-01T06:03:38;20.20;99.90
20658;DHT22;10488;50.846;4.078;2022-08-01T06:06:04;20.20;99.90
20658;DHT22;10488;50.846;4.078;2022-08-01T06:08:30;20.40;99.90
20658;DHT22;10488;50.846;4.078;2022-08-01T06:10:56;20.70;99.90
20658;DHT22;10488;50.846;4.078;2022-08-01T06:13:22;20.90;99.90
20658;DHT22;10488;50.846;4.078;2022-08-01T06:15:48;20.20;99.90
20658;DHT22;10488;50.846;4.078;2022-08-01T06:18:14;20.20;99.90
20658;DHT22;10488;50.846;4.078;2022-08-01T06:20:40;20.30;99.90
20658;DHT22;10488;50.846;4.078;2022-08-01T06:23:07;20.40;99.90
20658;DHT22;10488;50.846;4.078;2022-08-01T06:25:32;20.50;99.90
20658;DHT22;10488;50.846;4.078;2022-08-01T06:27:58;20.80;99.90
20658;DHT22;10488;50.846;4.078;2022-08-01T06:30:24;20.60;99.90
20658;DHT22;10488;50.846;4.078;2022-08-01T06:32:50;20.60;99.90
20658;DHT22;10488;50.846;4.078;2022-08-01T06:35:16;20.30;99.90
20658;DHT22;10488;50.846;4.078;2022-08-01T06:37:42;20.30;99.90
20658;DHT22;10488;50.846;4.078;2022-08-01T06:40:09;20.30;99.90
20658;DHT22;10488;50.846;4.078;2022-08-01T06:42:35;20.50;99.90
20658;DHT22;10488;50.846;4.078;2022-08-01T06:45:05;20.60;99.90
20658;DHT22;10488;50.846;4.078;2022-08-01T06:47:32;20.60;99.90
20658;DHT22;10488;50.846;4.078;2022-08-01T06:49:57;21.00;99.90
20658;DHT22;10488;50.846;4.078;2022-08-01T06:52:23;20.50;99.90
20658;DHT22;10488;50.846;4.078;2022-08-01T06:54:49;20.70;99.90
20658;DHT22;10488;50.846;4.078;2022-08-01T06:57:15;20.70;99.90
20658;DHT22;10488;50.846;4.078;2022-08-01T06:59:40;20.80;99.90
20658;DHT22;10488;50.846;4.078;2022-08-01T07:02:07;21.30;99.90
20658;DHT22;10488;50.846;4.078;2022-08-01T07:04:33;21.50;99.90
20658;DHT22;10488;50.846;4.078;2022-08-01T07:06:59;20.90;99.90
20658;DHT22;10488;50.846;4.078;2022-08-01T07:09:25;20.80;99.90
20658;DHT22;10488;50.846;4.078;2022-08-01T07:11:51;20.80;99.90
20658;DHT22;10488;50.846;4.078;2022-08-01T07:14:18;20.90;99.90
20658;DHT22;10488;50.846;4.078;2022-08-01T07:16:44;21.40;99.90
20658;DHT22;10488;50.846;4.078;2022-08-01T07:19:10;21.80;99.90
20658;DHT22;10488;50.846;4.078;2022-08-01T07:21:36;22.00;99.90
20658;DHT22;10488;50.846;4.078;2022-08-01T07:24:01;22.00;99.90
20658;DHT22;10488;50.846;4.078;2022-08-01T07:26:27;22.50;99.90
20658;DHT22;10488;50.846;4.078;2022-08-01T07:28:53;22.30;99.90
20658;DHT22;10488;50.846;4.078;2022-08-01T07:31:19;22.50;99.90
20658;DHT22;10488;50.846;4.078;2022-08-01T07:33:45;22.60;99.90
20658;DHT22;10488;50.846;4.078;2022-08-01T07:36:11;22.60;99.90
20658;DHT22;10488;50.846;4.078;2022-08-01T07:38:36;22.50;99.90
20658;DHT22;10488;50.846;4.078;2022-08-01T07:41:02;22.60;99.90
20658;DHT22;10488;50.846;4.078;2022-08-01T07:43:28;22.90;99.90
20658;DHT22;10488;50.846;4.078;2022-08-01T07:45:54;22.80;99.90
20658;DHT22;10488;50.846;4.078;2022-08-01T07:48:20;22.80;99.90
20658;DHT22;10488;50.846;4.078;2022-08-01T07:50:49;22.80;99.90
20658;DHT22;10488;50.846;4.078;2022-08-01T07:53:16;23.20;99.90
20658;DHT22;10488;50.846;4.078;2022-08-01T07:55:42;23.80;99.90
20658;DHT22;10488;50.846;4.078;2022-08-01T07:58:08;24.00;99.90
20658;DHT22;10488;50.846;4.078;2022-08-01T08:00:33;24.20;99.90
20658;DHT22;10488;50.846;4.078;2022-08-01T08:02:59;24.60;99.90
20658;DHT22;10488;50.846;4.078;2022-08-01T08:05:26;24.80;99.90
20658;DHT22;10488;50.846;4.078;2022-08-01T08:07:51;23.90;99.90
20658;DHT22;10488;50.846;4.078;2022-08-01T08:10:17;24.00;99.90
20658;DHT22;10488;50.846;4.078;2022-08-01T08:12:43;24.60;99.90
20658;DHT22;10488;50.846;4.078;2022-08-01T08:15:09;23.80;99.90
20658;DHT22;10488;50.846;4.078;2022-08-01T08:17:35;23.70;99.90
20658;DHT22;10488;50.846;4.078;2022-08-01T08:20:02;23.70;99.90
20658;DHT22;10488;50.846;4.078;2022-08-01T08:22:28;24.10;99.90
20658;DHT22;10488;50.846;4.078;2022-08-01T08:24:54;23.60;99.90
20658;DHT22;10488;50.846;4.078;2022-08-01T08:27:19;23.90;99.90
20658;DHT22;10488;50.846;4.078;2022-08-01T08:29:45;23.20;99.90
20658;DHT22;10488;50.846;4.078;2022-08-01T08:32:11;23.20;99.90
20658;DHT22;10488;50.846;4.078;2022-08-01T08:34:37;22.80;99.90
20658;DHT22;10488;50.846;4.078;2022-08-01T08:37:02;23.20;99.90
20658;DHT22;10488;50.846;4.078;2022-08-01T08:39:28;23.30;99.90
20658;DHT22;10488;50.846;4.078;2022-08-01T08:41:58;23.50;99.90
20658;DHT22;10488;50.846;4.078;2022-08-01T08:44:24;23.40;99.90
20658;DHT22;10488;50.846;4.078;2022-08-01T08:46:51;23.70;99.90
20658;DHT22;10488;50.846;4.078;2022-08-01T08:49:19;24.20;99.90
20658;DHT22;10488;50.846;4.078;2022-08-01T08:51:48;24.60;99.90
20658;DHT22;10488;50.846;4.078;2022-08-01T08:54:14;24.20;99.90
20658;DHT22;10488;50.846;4.078;2022-08-01T08:56:41;24.20;99.90
20658;DHT22;10488;50.846;4.078;2022-08-01T08:59:07;24.30;99.90
20658;DHT22;10488;50.846;4.078;2022-08-01T09:01:33;24.60;99.90
20658;DHT22;10488;50.846;4.078;2022-08-01T09:04:03;24.60;99.90
20658;DHT22;10488;50.846;4.078;2022-08-01T09:06:30;24.80;99.90
20658;DHT22;10488;50.846;4.078;2022-08-01T09:08:57;24.80;99.90
20658;DHT22;10488;50.846;4.078;2022-08-01T09:11:23;24.60;99.90
20658;DHT22;10488;50.846;4.078;2022-08-01T09:14:09;24.80;99.90
20658;DHT22;10488;50.846;4.078;2022-08-01T09:16:37;25.00;99.90
20658;DHT22;10488;50.846;4.078;2022-08-01T09:19:17;25.70;99.90
20658;DHT22;10488;50.846;4.078;2022-08-01T09:22:04;26.60;99.90
20658;DHT22;10488;50.846;4.078;2022-08-01T09:24:30;27.00;99.90
20658;DHT22;10488;50.846;4.078;2022-08-01T09:26:57;26.50;99.90
20658;DHT22;10488;50.846;4.078;2022-08-01T09:29:26;26.30;99.90
20658;DHT22;10488;50.846;4.078;2022-08-01T09:31:52;25.50;99.90
20658;DHT22;10488;50.846;4.078;2022-08-01T09:34:36;26.30;99.90
20658;DHT22;10488;50.846;4.078;2022-08-01T09:37:03;26.20;99.90
20658;DHT22;10488;50.846;4.078;2022-08-01T09:39:33;26.90;99.90
20658;DHT22;10488;50.846;4.078;2022-08-01T09:42:24;26.60;99.90
20658;DHT22;10488;50.846;4.078;2022-08-01T09:44:48;27.80;99.90
20658;DHT22;10488;50.846;4.078;2022-08-01T09:47:15;27.70;99.90
20658;DHT22;10488;50.846;4.078;2022-08-01T09:49:43;26.40;99.90
20658;DHT22;10488;50.846;4.078;2022-08-01T09:54:36;25.40;99.90
20658;DHT22;10488;50.846;4.078;2022-08-01T09:57:16;25.30;99.90
20658;DHT22;10488;50.846;4.078;2022-08-01T09:59:45;25.20;99.90
20658;DHT22;10488;50.846;4.078;2022-08-01T10:02:13;25.70;99.90
20658;DHT22;10488;50.846;4.078;2022-08-01T10:04:51;25.00;99.90
20658;DHT22;10488;50.846;4.078;2022-08-01T10:07:17;25.20;99.90
20658;DHT22;10488;50.846;4.078;2022-08-01T10:09:44;25.10;99.90
20658;DHT22;10488;50.846;4.078;2022-08-01T10:12:14;25.40;99.90
20658;DHT22;10488;50.846;4.078;2022-08-01T10:14:41;25.20;99.90
20658;DHT22;10488;50.846;4.078;2022-08-01T10:17:08;25.90;99.90
20658;DHT22;10488;50.846;4.078;2022-08-01T10:19:35;26.30;99.90
20658;DHT22;10488;50.846;4.078;2022-08-01T10:22:04;26.80;99.90
20658;DHT22;10488;50.846;4.078;2022-08-01T10:24:30;26.00;99.90
20658;DHT22;10488;50.846;4.078;2022-08-01T10:27:05;25.50;99.90
20658;DHT22;10488;50.846;4.078;2022-08-01T10:29:59;25.80;99.90
20658;DHT22;10488;50.846;4.078;2022-08-01T10:32:33;26.10;99.90
20658;DHT22;10488;50.846;4.078;2022-08-01T10:35:00;26.30;99.90
20658;DHT22;10488;50.846;4.078;2022-08-01T10:37:27;26.00;99.90
20658;DHT22;10488;50.846;4.078;2022-08-01T10:39:56;26.10;99.90
20658;DHT22;10488;50.846;4.078;2022-08-01T10:42:22;26.10;99.90
20658;DHT22;10488;50.846;4.078;2022-08-01T10:44:49;26.00;99.90
20658;DHT22;10488;50.846;4.078;2022-08-01T10:47:21;25.20;99.90
20658;DHT22;10488;50.846;4.078;2022-08-01T10:50:29;25.20;99.90
20658;DHT22;10488;50.846;4.078;2022-08-01T10:53:15;25.90;99.90
20658;DHT22;10488;50.846;4.078;2022-08-01T10:58:23;27.00;99.90
20658;DHT22;10488;50.846;4.078;2022-08-01T11:03:55;26.90;99.90
20658;DHT22;10488;50.846;4.078;2022-08-01T11:06:25;26.50;99.90
20658;DHT22;10488;50.846;4.078;2022-08-01T11:08:54;27.40;99.90
20658;DHT22;10488;50.846;4.078;2022-08-01T11:11:20;27.80;99.90
20658;DHT22;10488;50.846;4.078;2022-08-01T11:14:04;28.00;99.90
20658;DHT22;10488;50.846;4.078;2022-08-01T11:16:34;27.30;99.90
20658;DHT22;10488;50.846;4.078;2022-08-01T11:19:01;27.20;99.90
20658;DHT22;10488;50.846;4.078;2022-08-01T11:32:55;26.00;99.90
20658;DHT22;10488;50.846;4.078;2022-08-01T11:35:25;26.40;99.90
20658;DHT22;10488;50.846;4.078;2022-08-01T11:37:53;27.10;99.90
20658;DHT22;10488;50.846;4.078;2022-08-01T11:40:28;26.80;99.90
20658;DHT22;10488;50.846;4.078;2022-08-01T11:45:52;27.40;99.90
20658;DHT22;10488;50.846;4.078;2022-08-01T11:48:25;27.60;99.90
20658;DHT22;10488;50.846;4.078;2022-08-01T11:50:56;26.50;99.90
20658;DHT22;10488;50.846;4.078;2022-08-01T11:53:22;26.60;99.90
20658;DHT22;10488;50.846;4.078;2022-08-01T11:55:51;26.20;99.90
20658;DHT22;10488;50.846;4.078;2022-08-01T11:58:22;26.40;99.90
20658;DHT22;10488;50.846;4.078;2022-08-01T12:00:56;25.90;99.90
20658;DHT22;10488;50.846;4.078;2022-08-01T12:03:25;25.90;99.90
20658;DHT22;10488;50.846;4.078;2022-08-01T12:05:53;26.30;99.90
20658;DHT22;10488;50.846;4.078;2022-08-01T12:08:32;26.20;99.90
20658;DHT22;10488;50.846;4.078;2022-08-01T12:11:01;26.70;99.90
20658;DHT22;10488;50.846;4.078;2022-08-01T12:13:28;26.70;99.90
20658;DHT22;10488;50.846;4.078;2022-08-01T12:16:08;26.60;99.90
20658;DHT22;10488;50.846;4.078;2022-08-01T12:18:38;26.60;99.90
20658;DHT22;10488;50.846;4.078;2022-08-01T12:21:05;26.60;99.90
20658;DHT22;10488;50.846;4.078;2022-08-01T12:23:30;27.00;99.90
20658;DHT22;10488;50.846;4.078;2022-08-01T12:25:56;27.20;99.90
20658;DHT22;10488;50.846;4.078;2022-08-01T12:28:22;27.50;99.90
20658;DHT22;10488;50.846;4.078;2022-08-01T12:30:48;27.80;99.90
20658;DHT22;10488;50.846;4.078;2022-08-01T12:33:18;28.30;99.90
20658;DHT22;10488;50.846;4.078;2022-08-01T12:35:44;28.00;99.90
20658;DHT22;10488;50.846;4.078;2022-08-01T12:38:21;28.00;99.90
20658;DHT22;10488;50.846;4.078;2022-08-01T12:40:52;27.50;99.90
20658;DHT22;10488;50.846;4.078;2022-08-01T12:43:19;26.80;99.90
20658;DHT22;10488;50.846;4.078;2022-08-01T12:45:48;27.30;99.90
20658;DHT22;10488;50.846;4.078;2022-08-01T12:48:16;27.00;99.90
20658;DHT22;10488;50.846;4.078;2022-08-01T12:50:44;27.40;99.90
20658;DHT22;10488;50.846;4.078;2022-08-01T12:53:11;26.60;99.90
20658;DHT22;10488;50.846;4.078;2022-08-01T12:55:51;27.00;99.90
20658;DHT22;10488;50.846;4.078;2022-08-01T12:58:18;26.70;99.90
20658;DHT22;10488;50.846;4.078;2022-08-01T13:00:46;26.70;99.90
20658;DHT22;10488;50.846;4.078;2022-08-01T13:03:14;26.70;99.90
20658;DHT22;10488;50.846;4.078;2022-08-01T13:05:48;27.10;99.90
20658;DHT22;10488;50.846;4.078;2022-08-01T13:08:19;27.20;99.90
20658;DHT22;10488;50.846;4.078;2022-08-01T13:10:46;27.10;99.90
20658;DHT22;10488;50.846;4.078;2022-08-01T13:13:13;27.10;99.90
20658;DHT22;10488;50.846;4.078;2022-08-01T13:15:41;27.10;99.90
20658;DHT22;10488;50.846;4.078;2022-08-01T13:18:30;26.80;99.90
20658;DHT22;10488;50.846;4.078;2022-08-01T13:21:20;26.30;99.90
20658;DHT22;10488;50.846;4.078;2022-08-01T13:29:09;26.00;99.90
20658;DHT22;10488;50.846;4.078;2022-08-01T13:31:36;26.30;99.90
20658;DHT22;10488;50.846;4.078;2022-08-01T13:34:02;26.50;99.90
20658;DHT22;10488;50.846;4.078;2022-08-01T13:36:28;26.70;99.90
20658;DHT22;10488;50.846;4.078;2022-08-01T13:38:54;27.40;99.90
20658;DHT22;10488;50.846;4.078;2022-08-01T13:41:39;27.00;99.90
20658;DHT22;10488;50.846;4.078;2022-08-01T13:44:05;27.30;99.90
20658;DHT22;10488;50.846;4.078;2022-08-01T13:46:31;27.60;99.90
20658;DHT22;10488;50.846;4.078;2022-08-01T13:48:57;27.00;99.90
20658;DHT22;10488;50.846;4.078;2022-08-01T13:51:23;27.10;99.90
20658;DHT22;10488;50.846;4.078;2022-08-01T13:53:48;27.00;99.90
20658;DHT22;10488;50.846;4.078;2022-08-01T13:56:14;26.50;99.90
20658;DHT22;10488;50.846;4.078;2022-08-01T13:58:41;26.40;99.90
20658;DHT22;10488;50.846;4.078;2022-08-01T14:01:07;26.50;99.90
20658;DHT22;10488;50.846;4.078;2022-08-01T14:03:32;26.50;99.90
20658;DHT22;10488;50.846;4.078;2022-08-01T14:05:58;26.80;99.90
20658;DHT22;10488;50.846;4.078;2022-08-01T14:08:24;27.00;99.90
20658;DHT22;10488;50.846;4.078;2022-08-01T14:10:49;27.40;99.90
20658;DHT22;10488;50.846;4.078;2022-08-01T14:13:17;26.90;99.90
20658;DHT22;10488;50.846;4.078;2022-08-01T14:15:42;27.30;99.90
20658;DHT22;10488;50.846;4.078;2022-08-01T14:18:08;27.00;99.90
20658;DHT22;10488;50.846;4.078;2022-08-01T14:20:34;27.40;99.90
20658;DHT22;10488;50.846;4.078;2022-08-01T14:23:00;27.20;99.90
20658;DHT22;10488;50.846;4.078;2022-08-01T14:25:26;27.10;99.90
20658;DHT22;10488;50.846;4.078;2022-08-01T14:27:52;27.20;99.90
20658;DHT22;10488;50.846;4.078;2022-08-01T14:30:17;27.00;99.90
20658;DHT22;10488;50.846;4.078;2022-08-01T14:32:43;27.60;99.90
20658;DHT22;10488;50.846;4.078;2022-08-01T14:35:09;27.90;99.90
20658;DHT22;10488;50.846;4.078;2022-08-01T14:37:35;27.40;99.90
20658;DHT22;10488;50.846;4.078;2022-08-01T14:40:01;27.30;99.90
20658;DHT22;10488;50.846;4.078;2022-08-01T14:42:33;27.20;99.90
20658;DHT22;10488;50.846;4.078;2022-08-01T14:44:58;26.80;99.90
20658;DHT22;10488;50.846;4.078;2022-08-01T14:47:24;26.80;99.90
20658;DHT22;10488;50.846;4.078;2022-08-01T14:49:51;26.90;99.90
20658;DHT22;10488;50.846;4.078;2022-08-01T14:52:17;27.00;99.90
20658;DHT22;10488;50.846;4.078;2022-08-01T14:54:42;27.00;99.90
20658;DHT22;10488;50.846;4.078;2022-08-01T14:57:08;26.50;99.90
20658;DHT22;10488;50.846;4.078;2022-08-01T14:59:34;26.20;99.90
20658;DHT22;10488;50.846;4.078;2022-08-01T15:02:00;26.40;99.90
20658;DHT22;10488;50.846;4.078;2022-08-01T15:04:26;26.30;99.90
20658;DHT22;10488;50.846;4.078;2022-08-01T15:06:51;26.50;99.90
20658;DHT22;10488;50.846;4.078;2022-08-01T15:09:17;26.40;99.90
20658;DHT22;10488;50.846;4.078;2022-08-01T15:11:43;26.80;99.90
20658;DHT22;10488;50.846;4.078;2022-08-01T15:14:08;27.10;99.90
20658;DHT22;10488;50.846;4.078;2022-08-01T15:16:53;26.60;99.90
20658;DHT22;10488;50.846;4.078;2022-08-01T15:19:18;26.10;99.90
20658;DHT22;10488;50.846;4.078;2022-08-01T15:21:44;25.80;99.90
20658;DHT22;10488;50.846;4.078;2022-08-01T15:24:10;26.00;99.90
20658;DHT22;10488;50.846;4.078;2022-08-01T15:26:35;26.10;99.90
20658;DHT22;10488;50.846;4.078;2022-08-01T15:29:01;25.90;99.90
20658;DHT22;10488;50.846;4.078;2022-08-01T15:31:27;26.10;99.90
20658;DHT22;10488;50.846;4.078;2022-08-01T15:33:52;26.30;99.90
20658;DHT22;10488;50.846;4.078;2022-08-01T15:36:18;26.30;99.90
20658;DHT22;10488;50.846;4.078;2022-08-01T15:38:44;26.50;99.90
20658;DHT22;10488;50.846;4.078;2022-08-01T15:41:09;26.50;99.90
20658;DHT22;10488;50.846;4.078;2022-08-01T15:43:35;26.60;99.90
20658;DHT22;10488;50.846;4.078;2022-08-01T15:46:00;26.70;99.90
20658;DHT22;10488;50.846;4.078;2022-08-01T15:48:27;26.90;99.90
20658;DHT22;10488;50.846;4.078;2022-08-01T15:50:52;26.80;99.90
20658;DHT22;10488;50.846;4.078;2022-08-01T15:53:18;26.80;99.90
20658;DHT22;10488;50.846;4.078;2022-08-01T15:55:44;26.80;99.90
20658;DHT22;10488;50.846;4.078;2022-08-01T15:58:09;26.50;99.90
20658;DHT22;10488;50.846;4.078;2022-08-01T16:00:35;26.40;99.90
20658;DHT22;10488;50.846;4.078;2022-08-01T16:03:01;26.10;99.90
20658;DHT22;10488;50.846;4.078;2022-08-01T16:05:26;26.20;99.90
20658;DHT22;10488;50.846;4.078;2022-08-01T16:07:52;26.10;99.90
20658;DHT22;10488;50.846;4.078;2022-08-01T16:10:18;26.10;99.90
20658;DHT22;10488;50.846;4.078;2022-08-01T16:12:44;26.10;99.90